sensor_id;sensor_type;location;lat;lon;timestamp;pressure;altitude;pressure_sealevel;temperature;humidity
7966;BME280;4028;43.272;26.932;2023-05-15T00:01:35;99267.03;;;13.89;100.00
7966;BME280;4028;43.272;26.932;2023-05-15T00:04:01;99264.03;;;13.84;100.00
7966;BME280;4028;43.272;26.932;2023-05-15T00:06:26;99266.50;;;13.86;100.00
7966;BME280;4028;43.272;26.932;2023-05-15T00:08:52;99244.06;;;13.80;100.00
7966;BME280;4028;43.272;26.932;2023-05-15T00:11:18;99269.50;;;13.91;100.00
7966;BME280;4028;43.272;26.932;2023-05-15T00:13:46;99273.84;;;13.92;100.00
7966;BME280;4028;43.272;26.932;2023-05-15T00:16:11;99263.19;;;13.84;100.00
7966;BME280;4028;43.272;26.932;2023-05-15T00:18:37;99266.38;;;13.87;100.00
7966;BME280;4028;43.272;26.932;2023-05-15T00:21:03;99272.00;;;13.84;100.00
7966;BME280;4028;43.272;26.932;2023-05-15T00:23:28;99270.81;;;13.87;100.00
7966;BME280;4028;43.272;26.932;2023-05-15T00:25:54;99263.50;;;13.81;100.00
7966;BME280;4028;43.272;26.932;2023-05-15T00:28:19;99267.34;;;13.86;100.00
7966;BME280;4028;43.272;26.932;2023-05-15T00:30:44;99262.66;;;13.80;100.00
7966;BME280;4028;43.272;26.932;2023-05-15T00:33:10;99250.06;;;13.82;100.00
7966;BME280;4028;43.272;26.932;2023-05-15T00:35:35;99252.56;;;13.84;100.00
7966;BME280;4028;43.272;26.932;2023-05-15T00:38:01;99251.69;;;13.75;100.00
7966;BME280;4028;43.272;26.932;2023-05-15T00:40:27;99240.69;;;13.70;100.00
7966;BME280;4028;43.272;26.932;2023-05-15T00:42:53;99229.88;;;13.63;100.00
7966;BME280;4028;43.272;26.932;2023-05-15T00:45:20;99237.69;;;13.65;100.00
7966;BME280;4028;43.272;26.932;2023-05-15T00:47:46;99242.50;;;13.61;100.00
7966;BME280;4028;43.272;26.932;2023-05-15T00:50:12;99240.00;;;13.60;100.00
7966;BME280;4028;43.272;26.932;2023-05-15T00:52:39;99239.53;;;13.64;100.00
7966;BME280;4028;43.272;26.932;2023-05-15T00:55:04;99231.41;;;13.74;100.00
7966;BME280;4028;43.272;26.932;2023-05-15T00:57:31;99231.28;;;13.84;100.00
7966;BME280;4028;43.272;26.932;2023-05-15T00:59:56;99240.13;;;13.92;100.00
7966;BME280;4028;43.272;26.932;2023-05-15T01:02:23;99237.09;;;13.87;100.00
7966;BME280;4028;43.272;26.932;2023-05-15T01:04:49;99229.09;;;13.79;100.00
7966;BME280;4028;43.272;26.932;2023-05-15T01:07:14;99236.13;;;13.96;100.00
7966;BME280;4028;43.272;26.932;2023-05-15T01:09:43;99231.63;;;13.89;100.00
7966;BME280;4028;43.272;26.932;2023-05-15T01:12:14;99234.25;;;13.81;100.00
7966;BME280;4028;43.272;26.932;2023-05-15T01:14:40;99225.44;;;13.80;100.00
7966;BME280;4028;43.272;26.932;2023-05-15T01:17:06;99220.78;;;13.74;100.00
7966;BME280;4028;43.272;26.932;2023-05-15T01:19:31;99222.78;;;13.80;100.00
7966;BME280;4028;43.272;26.932;2023-05-15T01:28:02;99184.69;;;13.63;100.00
7966;BME280;4028;43.272;26.932;2023-05-15T01:30:33;99197.97;;;13.71;100.00
7966;BME280;4028;43.272;26.932;2023-05-15T01:33:07;99195.66;;;13.68;100.00
7966;BME280;4028;43.272;26.932;2023-05-15T01:36:23;99185.22;;;13.67;100.00
7966;BME280;4028;43.272;26.932;2023-05-15T01:38:45;99189.88;;;13.73;100.00
7966;BME280;4028;43.272;26.932;2023-05-15T01:41:40;99196.00;;;13.82;100.00
7966;BME280;4028;43.272;26.932;2023-05-15T01:44:21;99179.41;;;13.79;100.00
7966;BME280;4028;43.272;26.932;2023-05-15T01:46:54;99189.88;;;13.73;100.00
7966;BME280;4028;43.272;26.932;2023-05-15T01:49:23;99177.22;;;13.75;100.00
7966;BME280;4028;43.272;26.932;2023-05-15T01:51:58;99184.03;;;13.69;100.00
7966;BME280;4028;43.272;26.932;2023-05-15T01:54:26;99184.19;;;13.68;100.00
7966;BME280;4028;43.272;26.932;2023-05-15T01:56:54;99184.84;;;13.62;100.00
7966;BME280;4028;43.272;26.932;2023-05-15T01:59:20;99178.38;;;13.64;100.00
7966;BME280;4028;43.272;26.932;2023-05-15T02:01:48;99164.25;;;13.64;100.00
7966;BME280;4028;43.272;26.932;2023-05-15T02:04:15;99153.44;;;13.65;100.00
7966;BME280;4028;43.272;26.932;2023-05-15T02:06:42;99133.81;;;13.50;100.00
7966;BME280;4028;43.272;26.932;2023-05-15T02:09:08;99142.97;;;13.64;100.00
7966;BME280;4028;43.272;26.932;2023-05-15T02:11:35;99134.00;;;13.65;100.00
7966;BME280;4028;43.272;26.932;2023-05-15T02:14:01;99132.03;;;13.67;100.00
7966;BME280;4028;43.272;26.932;2023-05-15T02:16:28;99124.72;;;13.69;100.00
7966;BME280;4028;43.272;26.932;2023-05-15T02:18:54;99119.69;;;13.66;100.00
7966;BME280;4028;43.272;26.932;2023-05-15T02:21:19;99139.66;;;13.70;100.00
7966;BME280;4028;43.272;26.932;2023-05-15T02:23:45;99141.66;;;13.68;100.00
7966;BME280;4028;43.272;26.932;2023-05-15T02:32:01;99154.41;;;13.48;100.00
7966;BME280;4028;43.272;26.932;2023-05-15T02:37:13;99140.59;;;13.44;100.00
7966;BME280;4028;43.272;26.932;2023-05-15T02:39:41;99135.63;;;13.49;100.00
7966;BME280;4028;43.272;26.932;2023-05-15T02:42:09;99145.59;;;13.47;100.00
7966;BME280;4028;43.272;26.932;2023-05-15T02:44:36;99132.28;;;13.39;100.00
7966;BME280;4028;43.272;26.932;2023-05-15T02:47:02;99143.94;;;13.46;100.00
7966;BME280;4028;43.272;26.932;2023-05-15T02:49:28;99137.94;;;13.36;100.00
7966;BME280;4028;43.272;26.932;2023-05-15T02:51:54;99136.81;;;13.47;100.00
7966;BME280;4028;43.272;26.932;2023-05-15T02:54:19;99134.78;;;13.41;100.00
7966;BME280;4028;43.272;26.932;2023-05-15T02:56:45;99131.09;;;13.34;100.00
7966;BME280;4028;43.272;26.932;2023-05-15T02:59:11;99147.22;;;13.32;100.00
7966;BME280;4028;43.272;26.932;2023-05-15T03:01:42;99149.53;;;13.27;100.00
7966;BME280;4028;43.272;26.932;2023-05-15T03:04:08;99149.53;;;13.27;100.00
7966;BME280;4028;43.272;26.932;2023-05-15T03:06:34;99152.53;;;13.32;100.00
7966;BME280;4028;43.272;26.932;2023-05-15T03:08:59;99152.69;;;13.31;100.00
7966;BME280;4028;43.272;26.932;2023-05-15T03:11:25;99151.50;;;13.25;100.00
7966;BME280;4028;43.272;26.932;2023-05-15T03:13:50;99157.44;;;13.19;100.00
7966;BME280;4028;43.272;26.932;2023-05-15T03:16:16;99159.63;;;13.23;100.00
7966;BME280;4028;43.272;26.932;2023-05-15T03:18:41;99149.09;;;13.14;100.00
7966;BME280;4028;43.272;26.932;2023-05-15T03:21:07;99164.94;;;13.23;100.00
7966;BME280;4028;43.272;26.932;2023-05-15T03:23:32;99180.47;;;13.36;100.00
7966;BME280;4028;43.272;26.932;2023-05-15T03:25:57;99177.97;;;13.43;100.00
7966;BME280;4028;43.272;26.932;2023-05-15T03:28:23;99179.13;;;13.40;100.00
7966;BME280;4028;43.272;26.932;2023-05-15T03:30:48;99183.31;;;13.51;100.00
7966;BME280;4028;43.272;26.932;2023-05-15T03:33:14;99183.97;;;13.45;100.00
7966;BME280;4028;43.272;26.932;2023-05-15T03:35:40;99191.94;;;13.45;100.00
7966;BME280;4028;43.272;26.932;2023-05-15T03:38:05;99196.47;;;13.52;100.00
7966;BME280;4028;43.272;26.932;2023-05-15T03:40:31;99187.63;;;13.44;100.00
7966;BME280;4028;43.272;26.932;2023-05-15T03:42:56;99190.91;;;13.38;100.00
7966;BME280;4028;43.272;26.932;2023-05-15T03:45:22;99174.50;;;13.42;100.00
7966;BME280;4028;43.272;26.932;2023-05-15T03:47:48;99157.63;;;13.25;100.00
7966;BME280;4028;43.272;26.932;2023-05-15T03:50:14;99183.59;;;13.40;100.00
7966;BME280;4028;43.272;26.932;2023-05-15T03:52:39;99196.41;;;13.44;100.00
7966;BME280;4028;43.272;26.932;2023-05-15T03:55:05;99198.06;;;13.45;100.00
7966;BME280;4028;43.272;26.932;2023-05-15T03:57:31;99187.97;;;13.49;100.00
7966;BME280;4028;43.272;26.932;2023-05-15T03:59:57;99183.78;;;13.38;100.00
7966;BME280;4028;43.272;26.932;2023-05-15T04:02:23;99188.13;;;13.47;100.00
7966;BME280;4028;43.272;26.932;2023-05-15T04:04:48;99171.00;;;13.50;100.00
7966;BME280;4028;43.272;26.932;2023-05-15T04:07:14;99152.28;;;13.51;100.00
7966;BME280;4028;43.272;26.932;2023-05-15T04:09:39;99113.53;;;13.49;100.00
7966;BME280;4028;43.272;26.932;2023-05-15T04:12:05;99123.81;;;13.44;100.00
7966;BME280;4028;43.272;26.932;2023-05-15T04:14:30;99154.59;;;13.55;100.00
7966;BME280;4028;43.272;26.932;2023-05-15T04:16:56;99174.22;;;13.62;100.00
7966;BME280;4028;43.272;26.932;2023-05-15T04:19:21;99184.50;;;13.65;100.00
7966;BME280;4028;43.272;26.932;2023-05-15T04:21:47;99175.53;;;13.66;100.00
7966;BME280;4028;43.272;26.932;2023-05-15T04:24:12;99182.38;;;13.68;100.00
7966;BME280;4028;43.272;26.932;2023-05-15T04:26:38;99180.22;;;13.80;100.00
7966;BME280;4028;43.272;26.932;2023-05-15T04:29:03;99183.56;;;13.82;100.00
7966;BME280;4028;43.272;26.932;2023-05-15T04:31:29;99177.56;;;13.80;100.00
7966;BME280;4028;43.272;26.932;2023-05-15T04:33:55;99192.38;;;13.91;100.00
7966;BME280;4028;43.272;26.932;2023-05-15T04:36:21;99200.56;;;13.97;100.00
7966;BME280;4028;43.272;26.932;2023-05-15T04:38:47;99190.41;;;14.42;100.00
7966;BME280;4028;43.272;26.932;2023-05-15T04:41:12;99190.13;;;15.17;100.00
7966;BME280;4028;43.272;26.932;2023-05-15T04:43:38;99196.59;;;15.62;100.00
7966;BME280;4028;43.272;26.932;2023-05-15T04:46:03;99191.88;;;16.63;93.80
7966;BME280;4028;43.272;26.932;2023-05-15T04:48:29;99197.59;;;17.79;74.73
7966;BME280;4028;43.272;26.932;2023-05-15T04:50:54;99196.72;;;18.36;65.62
7966;BME280;4028;43.272;26.932;2023-05-15T04:53:20;99186.44;;;18.61;64.36
7966;BME280;4028;43.272;26.932;2023-05-15T04:55:45;99192.09;;;18.23;63.80
7966;BME280;4028;43.272;26.932;2023-05-15T04:58:11;99180.53;;;17.65;65.80
7966;BME280;4028;43.272;26.932;2023-05-15T05:00:36;99166.22;;;17.22;66.07
7966;BME280;4028;43.272;26.932;2023-05-15T05:03:02;99177.31;;;16.89;70.53
7966;BME280;4028;43.272;26.932;2023-05-15T05:05:28;99185.13;;;16.76;74.35
7966;BME280;4028;43.272;26.932;2023-05-15T05:07:54;99187.88;;;16.45;72.63
7966;BME280;4028;43.272;26.932;2023-05-15T05:10:19;99174.44;;;16.15;79.75
7966;BME280;4028;43.272;26.932;2023-05-15T05:12:45;99180.13;;;16.12;78.31
7966;BME280;4028;43.272;26.932;2023-05-15T05:15:11;99188.31;;;16.10;85.58
7966;BME280;4028;43.272;26.932;2023-05-15T05:17:36;99174.13;;;16.10;88.14
7966;BME280;4028;43.272;26.932;2023-05-15T05:20:02;99176.16;;;16.08;85.76
7966;BME280;4028;43.272;26.932;2023-05-15T05:22:29;99187.66;;;16.08;82.72
7966;BME280;4028;43.272;26.932;2023-05-15T05:24:55;99202.13;;;16.14;81.52
7966;BME280;4028;43.272;26.932;2023-05-15T05:27:20;99188.91;;;15.98;80.23
7966;BME280;4028;43.272;26.932;2023-05-15T05:29:46;99185.19;;;15.76;84.88
7966;BME280;4028;43.272;26.932;2023-05-15T05:32:11;99185.13;;;15.61;86.14
7966;BME280;4028;43.272;26.932;2023-05-15T05:34:37;99180.94;;;15.58;87.85
7966;BME280;4028;43.272;26.932;2023-05-15T05:37:02;99175.75;;;15.65;88.83
7966;BME280;4028;43.272;26.932;2023-05-15T05:39:28;99175.63;;;15.90;88.32
7966;BME280;4028;43.272;26.932;2023-05-15T05:41:53;99167.50;;;16.06;87.01
7966;BME280;4028;43.272;26.932;2023-05-15T05:44:19;99166.72;;;16.20;86.18
7966;BME280;4028;43.272;26.932;2023-05-15T05:46:45;99144.66;;;16.41;80.28
7966;BME280;4028;43.272;26.932;2023-05-15T05:49:10;99185.97;;;17.06;75.61
7966;BME280;4028;43.272;26.932;2023-05-15T05:51:36;99178.31;;;17.18;73.82
7966;BME280;4028;43.272;26.932;2023-05-15T05:54:02;99175.00;;;17.15;74.05
7966;BME280;4028;43.272;26.932;2023-05-15T05:56:28;99185.69;;;17.15;72.12
7966;BME280;4028;43.272;26.932;2023-05-15T05:58:53;99186.50;;;17.31;71.02
7966;BME280;4028;43.272;26.932;2023-05-15T06:01:20;99180.56;;;17.50;68.24
7966;BME280;4028;43.272;26.932;2023-05-15T06:03:46;99184.59;;;17.76;66.00
7966;BME280;4028;43.272;26.932;2023-05-15T06:06:11;99182.22;;;18.24;63.93
7966;BME280;4028;43.272;26.932;2023-05-15T06:08:37;99189.97;;;18.40;62.15
7966;BME280;4028;43.272;26.932;2023-05-15T06:11:03;99175.94;;;18.38;62.01
7966;BME280;4028;43.272;26.932;2023-05-15T06:13:28;99192.97;;;18.30;61.86
7966;BME280;4028;43.272;26.932;2023-05-15T06:15:54;99189.25;;;18.31;63.10
7966;BME280;4028;43.272;26.932;2023-05-15T06:18:19;99184.88;;;18.24;62.04
7966;BME280;4028;43.272;26.932;2023-05-15T06:20:45;99179.38;;;18.32;61.45
7966;BME280;4028;43.272;26.932;2023-05-15T06:23:11;99179.13;;;18.27;61.65
7966;BME280;4028;43.272;26.932;2023-05-15T06:25:36;99171.41;;;18.38;60.95
7966;BME280;4028;43.272;26.932;2023-05-15T06:28:02;99152.56;;;18.53;61.67
7966;BME280;4028;43.272;26.932;2023-05-15T06:30:27;99148.28;;;18.59;59.46
7966;BME280;4028;43.272;26.932;2023-05-15T06:32:53;99152.81;;;18.86;58.25
7966;BME280;4028;43.272;26.932;2023-05-15T06:35:18;99152.81;;;18.86;58.30
7966;BME280;4028;43.272;26.932;2023-05-15T06:37:44;99136.75;;;18.93;58.42
7966;BME280;4028;43.272;26.932;2023-05-15T06:40:14;99131.59;;;18.85;58.68
7966;BME280;4028;43.272;26.932;2023-05-15T06:42:40;99135.69;;;18.87;58.82
7966;BME280;4028;43.272;26.932;2023-05-15T06:45:06;99140.19;;;18.74;57.04
7966;BME280;4028;43.272;26.932;2023-05-15T06:47:31;99138.69;;;18.43;57.43
7966;BME280;4028;43.272;26.932;2023-05-15T06:49:57;99122.53;;;18.08;59.40
7966;BME280;4028;43.272;26.932;2023-05-15T06:52:22;99135.63;;;17.97;61.03
7966;BME280;4028;43.272;26.932;2023-05-15T06:54:48;99131.91;;;17.76;61.78
7966;BME280;4028;43.272;26.932;2023-05-15T06:57:14;99145.66;;;17.73;61.46
7966;BME280;4028;43.272;26.932;2023-05-15T06:59:39;99157.16;;;17.88;62.52
7966;BME280;4028;43.272;26.932;2023-05-15T07:02:05;99155.94;;;18.12;62.96
7966;BME280;4028;43.272;26.932;2023-05-15T07:04:31;99149.69;;;18.55;63.51
7966;BME280;4028;43.272;26.932;2023-05-15T07:06:56;99128.94;;;18.91;59.79
7966;BME280;4028;43.272;26.932;2023-05-15T07:09:23;99124.38;;;19.33;60.03
7966;BME280;4028;43.272;26.932;2023-05-15T07:11:48;99131.78;;;19.92;58.22
7966;BME280;4028;43.272;26.932;2023-05-15T07:14:14;99135.13;;;20.67;52.70
7966;BME280;4028;43.272;26.932;2023-05-15T07:16:39;99129.13;;;20.25;50.86
7966;BME280;4028;43.272;26.932;2023-05-15T07:19:07;99141.75;;;20.12;51.39
7966;BME280;4028;43.272;26.932;2023-05-15T07:21:33;99140.91;;;20.24;51.01
7966;BME280;4028;43.272;26.932;2023-05-15T07:23:58;99131.19;;;20.70;50.49
7966;BME280;4028;43.272;26.932;2023-05-15T07:26:24;99127.66;;;20.89;49.49
7966;BME280;4028;43.272;26.932;2023-05-15T07:28:50;99120.38;;;20.96;48.19
7966;BME280;4028;43.272;26.932;2023-05-15T07:31:15;99112.28;;;21.03;47.77
7966;BME280;4028;43.272;26.932;2023-05-15T07:33:41;99110.94;;;20.74;48.72
7966;BME280;4028;43.272;26.932;2023-05-15T07:36:06;99115.06;;;20.70;49.00
7966;BME280;4028;43.272;26.932;2023-05-15T07:38:32;99107.19;;;20.88;48.07
7966;BME280;4028;43.272;26.932;2023-05-15T07:40:57;99115.31;;;21.26;47.62
7966;BME280;4028;43.272;26.932;2023-05-15T07:43:23;99121.31;;;21.22;47.49
7966;BME280;4028;43.272;26.932;2023-05-15T07:45:48;99122.69;;;20.86;47.19
7966;BME280;4028;43.272;26.932;2023-05-15T07:48:16;99125.13;;;21.01;47.60
7966;BME280;4028;43.272;26.932;2023-05-15T07:50:43;99111.91;;;20.93;48.32
7966;BME280;4028;43.272;26.932;2023-05-15T07:53:10;99114.31;;;21.08;48.45
7966;BME280;4028;43.272;26.932;2023-05-15T07:55:35;99113.88;;;21.31;47.55
7966;BME280;4028;43.272;26.932;2023-05-15T07:58:01;99120.03;;;21.38;46.58
7966;BME280;4028;43.272;26.932;2023-05-15T08:00:26;99123.03;;;21.61;46.09
7966;BME280;4028;43.272;26.932;2023-05-15T08:02:52;99122.03;;;21.87;45.74
7966;BME280;4028;43.272;26.932;2023-05-15T08:05:17;99113.41;;;21.78;45.82
7966;BME280;4028;43.272;26.932;2023-05-15T08:07:44;99123.63;;;21.95;45.13
7966;BME280;4028;43.272;26.932;2023-05-15T08:10:10;99117.44;;;21.94;45.03
7966;BME280;4028;43.272;26.932;2023-05-15T08:12:35;99115.59;;;22.20;44.23
7966;BME280;4028;43.272;26.932;2023-05-15T08:15:01;99119.06;;;22.52;43.74
7966;BME280;4028;43.272;26.932;2023-05-15T08:17:26;99128.09;;;22.64;43.76
7966;BME280;4028;43.272;26.932;2023-05-15T08:19:52;99119.53;;;23.11;42.82
7966;BME280;4028;43.272;26.932;2023-05-15T08:22:17;99102.16;;;23.55;43.09
7966;BME280;4028;43.272;26.932;2023-05-15T08:24:43;99093.88;;;23.68;42.86
7966;BME280;4028;43.272;26.932;2023-05-15T08:27:09;99092.22;;;24.09;41.64
7966;BME280;4028;43.272;26.932;2023-05-15T08:29:35;99079.44;;;24.40;40.96
7966;BME280;4028;43.272;26.932;2023-05-15T08:32:01;99099.28;;;24.22;40.35
7966;BME280;4028;43.272;26.932;2023-05-15T08:34:27;99095.69;;;24.63;41.22
7966;BME280;4028;43.272;26.932;2023-05-15T08:36:53;99091.28;;;24.85;39.21
7966;BME280;4028;43.272;26.932;2023-05-15T08:39:18;99093.25;;;23.96;39.98
7966;BME280;4028;43.272;26.932;2023-05-15T08:41:53;99098.06;;;23.64;40.97
7966;BME280;4028;43.272;26.932;2023-05-15T08:44:21;99097.56;;;23.55;40.72
7966;BME280;4028;43.272;26.932;2023-05-15T08:46:47;99089.91;;;23.71;40.95
7966;BME280;4028;43.272;26.932;2023-05-15T08:49:22;99093.06;;;23.79;41.14
7966;BME280;4028;43.272;26.932;2023-05-15T08:51:52;99105.34;;;23.64;40.93
7966;BME280;4028;43.272;26.932;2023-05-15T08:54:18;99106.59;;;23.31;42.23
7966;BME280;4028;43.272;26.932;2023-05-15T08:56:44;99100.41;;;23.12;41.99
7966;BME280;4028;43.272;26.932;2023-05-15T08:59:09;99087.94;;;23.29;41.36
7966;BME280;4028;43.272;26.932;2023-05-15T09:01:35;99090.19;;;23.63;42.32
7966;BME280;4028;43.272;26.932;2023-05-15T09:04:02;99075.09;;;23.73;41.09
7966;BME280;4028;43.272;26.932;2023-05-15T09:06:28;99090.22;;;24.16;40.11
7966;BME280;4028;43.272;26.932;2023-05-15T09:08:55;99072.09;;;24.05;39.74
7966;BME280;4028;43.272;26.932;2023-05-15T09:11:25;99080.44;;;23.92;39.30
7966;BME280;4028;43.272;26.932;2023-05-15T09:13:51;99061.72;;;23.90;39.87
7966;BME280;4028;43.272;26.932;2023-05-15T09:16:17;99060.19;;;23.71;39.62
7966;BME280;4028;43.272;26.932;2023-05-15T09:18:45;99064.78;;;23.52;39.33
7966;BME280;4028;43.272;26.932;2023-05-15T09:21:22;99061.63;;;23.25;39.50
7966;BME280;4028;43.272;26.932;2023-05-15T09:23:54;99065.97;;;23.26;39.94
7966;BME280;4028;43.272;26.932;2023-05-15T09:26:20;99067.03;;;23.55;40.08
7966;BME280;4028;43.272;26.932;2023-05-15T09:28:47;99070.97;;;23.41;40.19
7966;BME280;4028;43.272;26.932;2023-05-15T09:31:12;99053.41;;;23.20;39.84
7966;BME280;4028;43.272;26.932;2023-05-15T09:33:39;99063.94;;;23.40;39.93
7966;BME280;4028;43.272;26.932;2023-05-15T09:36:07;99063.69;;;23.41;39.37
7966;BME280;4028;43.272;26.932;2023-05-15T09:38:42;99036.19;;;23.32;39.79
7966;BME280;4028;43.272;26.932;2023-05-15T09:41:12;99055.16;;;23.86;39.46
7966;BME280;4028;43.272;26.932;2023-05-15T09:43:39;99056.00;;;23.86;39.74
7966;BME280;4028;43.272;26.932;2023-05-15T09:46:06;99071.16;;;23.57;39.16
7966;BME280;4028;43.272;26.932;2023-05-15T09:48:37;99049.53;;;23.57;39.35
7966;BME280;4028;43.272;26.932;2023-05-15T09:51:04;99049.47;;;23.64;40.25
7966;BME280;4028;43.272;26.932;2023-05-15T09:53:31;99054.44;;;23.79;39.56
7966;BME280;4028;43.272;26.932;2023-05-15T09:55:57;99048.13;;;23.97;39.61
7966;BME280;4028;43.272;26.932;2023-05-15T09:58:22;99042.03;;;24.25;39.26
7966;BME280;4028;43.272;26.932;2023-05-15T10:00:48;99035.84;;;24.48;38.94
7966;BME280;4028;43.272;26.932;2023-05-15T10:03:13;99030.66;;;24.11;39.24
7966;BME280;4028;43.272;26.932;2023-05-15T10:05:39;99030.75;;;24.04;39.37
7966;BME280;4028;43.272;26.932;2023-05-15T10:08:05;99037.31;;;24.20;39.59
7966;BME280;4028;43.272;26.932;2023-05-15T10:10:31;99046.28;;;24.32;39.24
7966;BME280;4028;43.272;26.932;2023-05-15T10:12:58;99040.53;;;24.41;39.82
7966;BME280;4028;43.272;26.932;2023-05-15T10:15:26;99035.31;;;24.74;39.24
7966;BME280;4028;43.272;26.932;2023-05-15T10:17:52;99030.44;;;25.00;39.40
7966;BME280;4028;43.272;26.932;2023-05-15T10:20:21;99035.47;;;25.20;40.07
7966;BME280;4028;43.272;26.932;2023-05-15T10:22:52;99051.66;;;24.79;38.82
7966;BME280;4028;43.272;26.932;2023-05-15T10:27:58;99034.66;;;24.44;41.38
7966;BME280;4028;43.272;26.932;2023-05-15T10:30:25;99032.97;;;24.78;39.93
7966;BME280;4028;43.272;26.932;2023-05-15T10:32:51;99044.38;;;24.80;39.62
7966;BME280;4028;43.272;26.932;2023-05-15T10:35:17;99041.72;;;24.45;39.63
7966;BME280;4028;43.272;26.932;2023-05-15T10:37:44;99045.19;;;23.98;41.88
7966;BME280;4028;43.272;26.932;2023-05-15T10:40:11;99038.13;;;23.85;41.37
7966;BME280;4028;43.272;26.932;2023-05-15T10:42:37;99042.84;;;24.02;40.60
7966;BME280;4028;43.272;26.932;2023-05-15T10:45:06;99039.50;;;24.42;40.79
7966;BME280;4028;43.272;26.932;2023-05-15T10:47:33;99036.28;;;24.56;39.74
7966;BME280;4028;43.272;26.932;2023-05-15T10:50:00;99021.34;;;24.66;39.21
7966;BME280;4028;43.272;26.932;2023-05-15T10:52:25;99025.25;;;24.58;39.40
7966;BME280;4028;43.272;26.932;2023-05-15T10:54:52;99019.63;;;24.48;39.73
7966;BME280;4028;43.272;26.932;2023-05-15T10:57:20;99033.47;;;24.16;39.57
7966;BME280;4028;43.272;26.932;2023-05-15T10:59:46;99013.25;;;24.07;40.62
7966;BME280;4028;43.272;26.932;2023-05-15T11:02:25;99020.66;;;24.23;40.30
7966;BME280;4028;43.272;26.932;2023-05-15T11:04:58;98998.53;;;24.15;39.60
7966;BME280;4028;43.272;26.932;2023-05-15T11:07:24;99014.41;;;24.34;39.66
7966;BME280;4028;43.272;26.932;2023-05-15T11:09:51;99019.13;;;24.39;39.36
7966;BME280;4028;43.272;26.932;2023-05-15T11:12:17;98991.75;;;24.35;40.11
7966;BME280;4028;43.272;26.932;2023-05-15T11:15:16;98993.50;;;24.18;38.70
7966;BME280;4028;43.272;26.932;2023-05-15T11:17:33;98993.38;;;24.25;39.30
7966;BME280;4028;43.272;26.932;2023-05-15T11:19:59;99001.38;;;24.08;39.34
7966;BME280;4028;43.272;26.932;2023-05-15T11:27:38;99000.06;;;23.99;38.86
7966;BME280;4028;43.272;26.932;2023-05-15T11:35:17;98990.34;;;24.21;38.80
7966;BME280;4028;43.272;26.932;2023-05-15T11:37:51;98982.69;;;24.06;38.83
7966;BME280;4028;43.272;26.932;2023-05-15T11:43:28;99001.72;;;24.35;38.09
7966;BME280;4028;43.272;26.932;2023-05-15T11:46:04;98997.38;;;24.46;37.99
7966;BME280;4028;43.272;26.932;2023-05-15T11:48:44;98990.06;;;24.34;38.21
7966;BME280;4028;43.272;26.932;2023-05-15T11:51:18;98991.97;;;24.46;38.65
7966;BME280;4028;43.272;26.932;2023-05-15T11:53:44;98986.56;;;24.46;38.67
7966;BME280;4028;43.272;26.932;2023-05-15T11:56:21;98997.97;;;24.48;38.45
7966;BME280;4028;43.272;26.932;2023-05-15T11:58:48;98988.34;;;24.52;38.35
7966;BME280;4028;43.272;26.932;2023-05-15T12:01:14;98990.31;;;24.45;37.90
7966;BME280;4028;43.272;26.932;2023-05-15T12:03:39;98983.03;;;24.10;38.90
7966;BME280;4028;43.272;26.932;2023-05-15T12:06:05;98978.94;;;24.07;38.17
7966;BME280;4028;43.272;26.932;2023-05-15T12:08:31;98976.09;;;24.14;38.24
7966;BME280;4028;43.272;26.932;2023-05-15T12:10:58;98975.75;;;23.99;38.57
7966;BME280;4028;43.272;26.932;2023-05-15T12:13:24;98969.28;;;24.00;38.70
7966;BME280;4028;43.272;26.932;2023-05-15T12:15:50;98978.22;;;23.89;38.93
7966;BME280;4028;43.272;26.932;2023-05-15T12:18:15;98975.75;;;23.87;39.46
7966;BME280;4028;43.272;26.932;2023-05-15T12:20:41;98971.66;;;23.96;39.81
7966;BME280;4028;43.272;26.932;2023-05-15T12:23:14;98964.25;;;23.92;39.38
7966;BME280;4028;43.272;26.932;2023-05-15T12:25:41;98984.81;;;23.93;40.01
7966;BME280;4028;43.272;26.932;2023-05-15T12:28:07;98972.44;;;23.73;39.86
7966;BME280;4028;43.272;26.932;2023-05-15T12:30:33;98970.31;;;23.64;40.23
7966;BME280;4028;43.272;26.932;2023-05-15T12:33:05;98977.72;;;23.80;40.74
7966;BME280;4028;43.272;26.932;2023-05-15T12:35:34;98977.28;;;24.18;40.33
7966;BME280;4028;43.272;26.932;2023-05-15T12:38:04;98989.03;;;24.35;39.74
7966;BME280;4028;43.272;26.932;2023-05-15T12:40:33;98979.91;;;24.36;40.03
7966;BME280;4028;43.272;26.932;2023-05-15T12:43:04;98978.22;;;24.24;39.93
7966;BME280;4028;43.272;26.932;2023-05-15T12:45:30;98990.06;;;24.34;39.94
7966;BME280;4028;43.272;26.932;2023-05-15T12:47:57;98984.81;;;24.40;39.11
7966;BME280;4028;43.272;26.932;2023-05-15T12:50:24;98982.44;;;24.55;38.85
7966;BME280;4028;43.272;26.932;2023-05-15T12:52:54;98982.78;;;24.35;38.66
7966;BME280;4028;43.272;26.932;2023-05-15T12:55:26;98976.47;;;24.06;38.77
7966;BME280;4028;43.272;26.932;2023-05-15T12:57:52;98974.22;;;24.15;39.09
7966;BME280;4028;43.272;26.932;2023-05-15T13:00:20;98978.34;;;24.17;39.90
7966;BME280;4028;43.272;26.932;2023-05-15T13:02:48;98976.34;;;24.24;39.01
7966;BME280;4028;43.272;26.932;2023-05-15T13:05:14;98982.81;;;24.11;38.32
7966;BME280;4028;43.272;26.932;2023-05-15T13:07:41;98983.03;;;23.86;38.37
7966;BME280;4028;43.272;26.932;2023-05-15T13:10:07;98976.22;;;23.84;38.84
7966;BME280;4028;43.272;26.932;2023-05-15T13:12:45;98987.03;;;23.96;38.71
7966;BME280;4028;43.272;26.932;2023-05-15T13:18:09;98987.13;;;23.77;39.59
7966;BME280;4028;43.272;26.932;2023-05-15T13:20:40;98987.47;;;23.69;39.46
7966;BME280;4028;43.272;26.932;2023-05-15T13:23:08;98993.41;;;23.59;40.37
7966;BME280;4028;43.272;26.932;2023-05-15T13:25:34;98994.44;;;23.47;39.91
7966;BME280;4028;43.272;26.932;2023-05-15T13:28:01;99003.78;;;23.32;39.99
7966;BME280;4028;43.272;26.932;2023-05-15T13:30:28;99012.25;;;23.36;39.59
7966;BME280;4028;43.272;26.932;2023-05-15T13:32:53;99015.78;;;23.37;39.98
7966;BME280;4028;43.272;26.932;2023-05-15T13:35:19;99013.19;;;23.30;40.25
7966;BME280;4028;43.272;26.932;2023-05-15T13:37:45;99008.75;;;23.35;39.71
7966;BME280;4028;43.272;26.932;2023-05-15T13:40:11;99012.81;;;23.26;40.35